Pagina principale
METAR-TAF:

METAR-TAF

Aeroporti :

Pratica Di Mare, Italia

Aeroporto militare Mario de Bernardi

latitudine: 41-39N, longitudine: 012-27E, altezza: 6 m

Osservazione

Il bollettino è stato emesso 1 ora e 17 minuti fa, alle 06:55 UTC
Vento 4 kt da est/nord-est, variando fra nord/nord-ovest e sud/sud-est
Temperature 22°C
Umidità 35%
Pressione 1018 hPa
Visibilità 10 km o più
nessuna nube inferiore a 1500 m e nessun cumulonembo

METAR: LIRE 270655Z 06004KT 340V160 CAVOK 22/06 Q1018 RMK SKC VIS MIN 9999 WIND THR13 04004KT WIND THR31 /////KT BLU

Ora: 10:12 (08:12 UTC)

Previsione

Il bollettino è stato emesso 3 ore e 12 minuti fa, alle 05:00 UTC
Previsione valida dal 27 alle 06 UTC al 27 alle 15 UTC
Vento 8 kt da nord/nord-ovest
Visibilità 10 km o più
nessuna nube inferiore a 1500 m e nessun cumulonembo

TAF: LIRE 270500Z 2706/2715 33008KT CAVOK

Osservazioni e previsioni meteorologiche di più di 4000 aeroporti (messaggi METAR e TAF).

Le stazioni disponibili sono rappresentate dai dischi gialli e rossi sulla carta.

Puntare il mouse per vedere il nome della stazione.

Clicca sopra per visualizzare le osservazioni e previsioni meteorologiche.

Per cambiare la mappa : fare clic sui pulsanti verdi con una croce nera per ingrandire, il pulsante verde con un trattino per diminuire, o sulla freccia verde per le mappe adiacenti.


METAR-TAF: